Bay Terrace, New York
Current Conditions -  °F | °C
As of 2:51 AM on Friday 21 Nov 2014 (Local Time) from KLGA Reporting Station
Clear Clear  
Wind Chill: 19°   Ceiling: Unl
Heat Index: 30°   Visibility: 10mi
Dew Point:   Wind: 15mph
Humidity: 41%   Direction: 290°WNW
Pressure: 30.08"   Gusts: 22mph
Location:  40.7825°N, 73.7809°W
Report Text: KLGA 210751Z 29013G19KT 10SM CLR M01/M13 A3008 RMK AO2 PK WND 29026/0727 SLP186 T10111128
Loading
Personal Weather Stations






























Interactive Weather Map New forecast layout! Learn more

10-Day Weather Forecast

Advertisements
Track Severe Weather on mobile